createdAt,value
2023-05-23T00:01:00.755Z,51.10
2023-05-23T00:03:29.059Z,51.20
2023-05-23T00:05:56.706Z,51.20
2023-05-23T00:08:23.869Z,51.20
2023-05-23T00:10:51.121Z,51.30
2023-05-23T00:13:18.739Z,51.20
2023-05-23T00:15:46.869Z,51.30
2023-05-23T00:18:13.981Z,51.30
2023-05-23T00:20:45.815Z,51.30
2023-05-23T00:23:19.249Z,51.30
2023-05-23T00:25:53.491Z,51.30
2023-05-23T00:28:21.027Z,51.30
2023-05-23T00:30:52.178Z,51.20
2023-05-23T00:33:22.243Z,51.30
2023-05-23T00:35:49.489Z,51.20
2023-05-23T00:38:17.477Z,51.20
2023-05-23T00:40:44.717Z,51.10
2023-05-23T00:43:12.533Z,51.20
2023-05-23T00:45:39.941Z,51.20
2023-05-23T00:48:09.173Z,51.20
2023-05-23T00:50:36.310Z,51.20
2023-05-23T00:53:04.751Z,51.20
2023-05-23T00:55:33.402Z,51.20
2023-05-23T00:58:00.909Z,51.20
2023-05-23T01:00:29.116Z,51.20
2023-05-23T01:02:56.768Z,51.30
2023-05-23T01:05:25.100Z,51.30
2023-05-23T01:07:53.087Z,51.30
2023-05-23T01:10:24.604Z,51.90
2023-05-23T01:13:16.829Z,51.30
2023-05-23T01:16:15.295Z,51.30
2023-05-23T01:18:51.364Z,51.40
2023-05-23T01:21:19.851Z,51.40
2023-05-23T01:24:20.876Z,51.40
2023-05-23T01:27:27.745Z,51.30
2023-05-23T01:29:58.681Z,51.30
2023-05-23T01:32:27.408Z,51.40
2023-05-23T01:34:55.953Z,51.40
2023-05-23T01:37:23.001Z,51.40
2023-05-23T01:39:50.087Z,51.40
2023-05-23T01:42:17.303Z,51.50
2023-05-23T01:44:46.547Z,51.50
2023-05-23T01:47:16.110Z,51.50
2023-05-23T01:49:45.173Z,51.60
2023-05-23T01:52:13.415Z,51.50
2023-05-23T01:54:43.531Z,51.50
2023-05-23T01:57:10.987Z,51.60
2023-05-23T01:59:39.106Z,51.60
2023-05-23T02:02:06.514Z,51.60
2023-05-23T02:04:34.036Z,51.60
2023-05-23T02:07:01.182Z,51.60
2023-05-23T02:09:28.862Z,51.60
2023-05-23T02:11:55.983Z,51.60
2023-05-23T02:14:24.085Z,51.50
2023-05-23T02:16:52.877Z,51.50
2023-05-23T02:19:20.210Z,51.50
2023-05-23T02:21:48.250Z,51.40
2023-05-23T02:24:15.377Z,51.50
2023-05-23T02:26:42.440Z,51.40
2023-05-23T02:29:09.582Z,51.40
2023-05-23T02:31:37.176Z,51.40
2023-05-23T02:34:04.252Z,51.50
2023-05-23T02:36:33.545Z,51.50
2023-05-23T02:39:00.644Z,51.50
2023-05-23T02:41:27.712Z,51.50
2023-05-23T02:43:55.030Z,52.10
2023-05-23T02:46:22.699Z,51.50
2023-05-23T02:48:49.873Z,51.60
2023-05-23T02:51:17.065Z,51.50
2023-05-23T02:53:44.150Z,52.10
2023-05-23T02:56:11.774Z,51.60
2023-05-23T02:58:40.029Z,51.60
2023-05-23T03:01:08.497Z,51.60
2023-05-23T03:03:35.980Z,51.50
2023-05-23T03:06:06.449Z,51.60
2023-05-23T03:08:33.594Z,51.60
2023-05-23T03:11:00.654Z,51.50
2023-05-23T03:13:28.708Z,51.60
2023-05-23T03:15:56.027Z,51.60
2023-05-23T03:18:23.123Z,51.50
2023-05-23T03:20:50.290Z,51.50
2023-05-23T03:23:17.324Z,51.50
2023-05-23T03:25:44.434Z,51.60
2023-05-23T03:28:12.394Z,51.60
2023-05-23T03:30:39.415Z,51.60
2023-05-23T03:33:07.564Z,51.60
2023-05-23T03:35:34.747Z,51.70
2023-05-23T03:38:01.984Z,51.70
2023-05-23T03:40:29.031Z,51.70
2023-05-23T03:43:06.628Z,51.60
2023-05-23T03:45:34.605Z,51.50
2023-05-23T03:48:02.141Z,51.50
2023-05-23T03:50:29.258Z,51.50
2023-05-23T03:52:56.479Z,51.50
2023-05-23T03:55:25.538Z,51.40
2023-05-23T03:57:52.856Z,51.30
2023-05-23T04:00:20.160Z,51.20
2023-05-23T04:02:47.484Z,51.20
2023-05-23T04:05:14.712Z,51.10
2023-05-23T04:07:42.873Z,51.10
2023-05-23T04:10:10.581Z,51.00
2023-05-23T04:12:38.608Z,50.90
2023-05-23T04:15:06.144Z,50.90
2023-05-23T04:17:33.366Z,50.80
2023-05-23T04:20:01.063Z,50.80
2023-05-23T04:22:28.165Z,50.70
2023-05-23T04:24:55.180Z,50.60
2023-05-23T04:27:22.481Z,50.60
2023-05-23T04:29:49.619Z,50.50
2023-05-23T04:32:18.533Z,50.50
2023-05-23T04:34:45.732Z,50.50
2023-05-23T04:37:13.058Z,50.40
2023-05-23T04:39:40.193Z,50.40
2023-05-23T04:42:07.610Z,50.30
2023-05-23T04:44:37.567Z,50.30
2023-05-23T04:47:04.852Z,50.30
2023-05-23T04:49:34.328Z,50.30
2023-05-23T04:52:01.415Z,50.30
2023-05-23T04:54:28.568Z,50.30
2023-05-23T04:56:55.695Z,50.20
2023-05-23T04:59:22.896Z,50.30
2023-05-23T05:01:50.002Z,50.30
2023-05-23T05:04:17.187Z,50.20
2023-05-23T05:06:45.060Z,50.20
2023-05-23T05:09:12.164Z,50.20
2023-05-23T05:11:39.212Z,50.20
2023-05-23T05:14:06.276Z,50.10
2023-05-23T05:16:33.452Z,50.20
2023-05-23T05:19:00.562Z,50.00
2023-05-23T05:21:27.652Z,50.00
2023-05-23T05:23:54.896Z,49.90
2023-05-23T05:26:29.321Z,49.90
2023-05-23T05:28:57.074Z,50.00
2023-05-23T05:31:24.149Z,49.90
2023-05-23T05:33:51.237Z,49.90
2023-05-23T05:36:19.607Z,49.90
2023-05-23T05:38:46.727Z,49.90
2023-05-23T05:41:14.695Z,49.80
2023-05-23T05:43:41.891Z,49.70
2023-05-23T05:46:09.156Z,49.60
2023-05-23T05:48:36.254Z,49.50
2023-05-23T05:51:03.486Z,49.50
2023-05-23T05:53:30.971Z,49.60
2023-05-23T05:55:58.063Z,49.60
2023-05-23T05:58:25.112Z,49.70
2023-05-23T06:00:53.770Z,49.70
2023-05-23T06:03:20.969Z,49.60
2023-05-23T06:05:48.379Z,49.70
2023-05-23T06:08:15.506Z,49.80
2023-05-23T06:10:42.957Z,49.70
2023-05-23T06:13:10.622Z,49.80
2023-05-23T06:15:37.767Z,50.10
2023-05-23T06:18:05.728Z,49.80
2023-05-23T06:20:32.928Z,49.90
2023-05-23T06:23:00.540Z,49.80
2023-05-23T06:25:27.920Z,49.90
2023-05-23T06:27:55.002Z,50.00
2023-05-23T06:30:23.388Z,50.10
2023-05-23T06:32:50.851Z,49.90
2023-05-23T06:35:18.197Z,49.80
2023-05-23T06:37:46.069Z,49.90
2023-05-23T06:40:15.002Z,49.70
2023-05-23T06:42:42.228Z,49.80
2023-05-23T06:45:10.249Z,49.90
2023-05-23T06:47:37.348Z,50.00
2023-05-23T06:50:05.046Z,50.00
2023-05-23T06:52:32.253Z,49.90
2023-05-23T06:54:59.755Z,49.80
2023-05-23T06:57:26.852Z,49.90
2023-05-23T06:59:53.898Z,49.80
2023-05-23T07:02:21.001Z,49.80
2023-05-23T07:04:48.067Z,49.80
2023-05-23T07:07:15.981Z,49.80
2023-05-23T07:09:43.224Z,49.70
2023-05-23T07:12:10.427Z,49.70
2023-05-23T07:14:38.391Z,49.70
2023-05-23T07:17:05.823Z,49.70
2023-05-23T07:19:33.157Z,49.70
2023-05-23T07:22:00.254Z,49.70
2023-05-23T07:24:27.333Z,49.50
2023-05-23T07:26:54.665Z,49.40
2023-05-23T07:29:21.833Z,49.40
2023-05-23T07:31:49.543Z,49.20
2023-05-23T07:34:16.660Z,48.80
2023-05-23T07:36:43.736Z,49.00
2023-05-23T07:39:11.096Z,49.00
2023-05-23T07:41:38.171Z,48.70
2023-05-23T07:44:05.553Z,48.60
2023-05-23T07:46:32.616Z,48.30
2023-05-23T07:48:59.784Z,48.40
2023-05-23T07:51:27.115Z,48.30
2023-05-23T07:53:54.240Z,48.00
2023-05-23T07:56:23.333Z,48.00
2023-05-23T07:58:50.793Z,47.90
2023-05-23T08:01:18.800Z,47.30
2023-05-23T08:03:45.958Z,47.80
2023-05-23T08:06:13.077Z,47.80
2023-05-23T08:08:41.352Z,47.50
2023-05-23T08:11:08.405Z,46.80
2023-05-23T08:13:35.753Z,46.70
2023-05-23T08:16:02.999Z,47.10
2023-05-23T08:18:31.136Z,47.30
2023-05-23T08:20:58.503Z,47.30
2023-05-23T08:23:26.154Z,47.30
2023-05-23T08:25:53.533Z,47.30
2023-05-23T08:28:20.615Z,47.50
2023-05-23T08:30:47.690Z,47.40
2023-05-23T08:33:15.876Z,47.30
2023-05-23T08:35:43.071Z,47.20
2023-05-23T08:38:10.332Z,47.10
2023-05-23T08:40:37.552Z,47.00
2023-05-23T08:43:05.100Z,46.70
2023-05-23T08:45:34.928Z,46.50
2023-05-23T08:48:03.089Z,46.40
2023-05-23T08:50:31.103Z,46.70
2023-05-23T08:52:59.606Z,46.50
2023-05-23T08:55:28.382Z,46.50
2023-05-23T08:57:57.788Z,46.10
2023-05-23T09:00:27.479Z,46.10
2023-05-23T09:02:54.894Z,46.30
2023-05-23T09:05:22.854Z,46.10
2023-05-23T09:07:55.246Z,45.90
2023-05-23T09:10:22.577Z,45.60
2023-05-23T09:12:50.101Z,45.80
2023-05-23T09:15:17.555Z,45.70
2023-05-23T09:17:45.702Z,45.70
2023-05-23T09:20:15.324Z,45.60
2023-05-23T09:22:48.028Z,45.20
2023-05-23T09:25:15.910Z,45.20
2023-05-23T09:27:46.594Z,45.50
2023-05-23T09:30:14.480Z,45.60
2023-05-23T09:33:05.844Z,45.70
2023-05-23T09:35:33.604Z,45.60
2023-05-23T09:38:01.089Z,45.60
2023-05-23T09:40:32.286Z,45.60
2023-05-23T09:43:04.852Z,45.40
2023-05-23T09:45:32.899Z,45.00
2023-05-23T09:48:00.266Z,44.70
2023-05-23T09:50:33.889Z,45.00
2023-05-23T09:53:01.924Z,45.00
2023-05-23T09:55:29.484Z,44.90
2023-05-23T09:58:00.000Z,45.00
2023-05-23T10:00:28.828Z,45.00
2023-05-23T10:03:14.583Z,45.20
2023-05-23T10:05:47.760Z,45.30
2023-05-23T10:08:22.500Z,45.20
2023-05-23T10:11:29.329Z,45.30
2023-05-23T10:13:57.101Z,45.20
2023-05-23T10:16:57.789Z,45.30
2023-05-23T10:19:45.153Z,45.20
2023-05-23T10:22:14.553Z,45.00
2023-05-23T10:24:42.744Z,44.80
2023-05-23T10:27:10.100Z,44.90
2023-05-23T10:29:38.219Z,44.80
2023-05-23T10:32:07.675Z,44.70
2023-05-23T10:34:44.538Z,44.50
2023-05-23T10:37:23.784Z,44.30
2023-05-23T10:40:08.865Z,44.40
2023-05-23T10:43:04.544Z,44.30
2023-05-23T10:45:42.794Z,44.10
2023-05-23T10:48:35.605Z,43.90
2023-05-23T10:51:12.063Z,44.40
2023-05-23T10:53:41.715Z,44.50
2023-05-23T10:56:11.194Z,44.50
2023-05-23T10:58:39.919Z,44.60
2023-05-23T11:01:16.051Z,44.30
2023-05-23T11:03:55.073Z,44.20
2023-05-23T11:06:44.891Z,44.20
2023-05-23T11:09:35.041Z,44.00
2023-05-23T11:12:05.638Z,43.70
2023-05-23T11:14:55.174Z,43.70
2023-05-23T11:17:33.625Z,43.40
2023-05-23T11:20:08.867Z,43.50
2023-05-23T11:22:37.439Z,43.20
2023-05-23T11:25:10.345Z,43.20
2023-05-23T11:27:39.677Z,43.10
2023-05-23T11:30:15.446Z,43.30
2023-05-23T11:32:52.340Z,43.20
2023-05-23T11:35:20.245Z,42.90
2023-05-23T11:37:47.760Z,42.90
2023-05-23T11:40:36.031Z,42.50
2023-05-23T11:43:08.844Z,42.30
2023-05-23T11:45:39.173Z,42.20
2023-05-23T11:48:14.247Z,41.80
2023-05-23T11:50:47.670Z,41.70
2023-05-23T11:53:21.106Z,41.90
2023-05-23T11:55:57.801Z,41.80
2023-05-23T11:58:31.445Z,41.70
2023-05-23T12:01:03.529Z,41.80
2023-05-23T12:03:32.298Z,41.90
2023-05-23T12:05:59.789Z,42.00
2023-05-23T12:08:26.999Z,42.30
2023-05-23T12:10:58.083Z,42.30
2023-05-23T12:13:26.886Z,42.30
2023-05-23T12:15:58.658Z,42.50
2023-05-23T12:18:29.579Z,42.50
2023-05-23T12:21:05.988Z,42.60
2023-05-23T12:23:35.994Z,42.60
2023-05-23T12:26:10.502Z,42.40
2023-05-23T12:28:46.118Z,42.50
2023-05-23T12:31:16.723Z,42.60
2023-05-23T12:33:48.353Z,42.80
2023-05-23T12:36:23.031Z,42.50
2023-05-23T12:38:50.223Z,42.60
2023-05-23T12:41:22.210Z,42.60
2023-05-23T12:43:54.500Z,42.60
2023-05-23T12:46:23.033Z,42.80
2023-05-23T12:48:50.572Z,42.80
2023-05-23T12:51:17.974Z,42.90
2023-05-23T12:53:45.633Z,43.10
2023-05-23T12:56:12.711Z,43.10
2023-05-23T12:58:39.967Z,43.20
2023-05-23T13:01:07.091Z,43.30
2023-05-23T13:03:34.221Z,43.30
2023-05-23T13:06:02.975Z,43.10
2023-05-23T13:08:30.030Z,43.10
2023-05-23T13:10:57.830Z,43.10
2023-05-23T13:13:25.039Z,43.00
2023-05-23T13:15:52.380Z,42.80
2023-05-23T13:18:20.496Z,42.90
2023-05-23T13:20:47.652Z,42.90
2023-05-23T13:23:14.786Z,42.80
2023-05-23T13:25:42.133Z,42.80
2023-05-23T13:28:09.993Z,43.00
2023-05-23T13:30:37.579Z,43.00
2023-05-23T13:33:05.374Z,43.10
2023-05-23T13:35:32.482Z,43.10
2023-05-23T13:37:59.616Z,43.00
2023-05-23T13:40:26.882Z,43.00
2023-05-23T13:42:54.846Z,43.00
2023-05-23T13:45:23.392Z,43.10
2023-05-23T13:47:50.595Z,43.10
2023-05-23T13:50:18.064Z,43.10
2023-05-23T13:52:48.987Z,43.20
2023-05-23T13:55:17.577Z,43.10
2023-05-23T13:57:44.811Z,43.00
2023-05-23T14:00:12.832Z,43.10
2023-05-23T14:02:40.082Z,43.20
2023-05-23T14:05:08.546Z,43.40
2023-05-23T14:07:36.261Z,43.40
2023-05-23T14:10:05.252Z,43.60
2023-05-23T14:12:32.617Z,43.50
2023-05-23T14:14:59.684Z,43.30
2023-05-23T14:17:27.525Z,43.20
2023-05-23T14:19:54.637Z,43.20
2023-05-23T14:22:21.706Z,43.00
2023-05-23T14:24:48.826Z,43.00
2023-05-23T14:27:16.004Z,43.00
2023-05-23T14:29:46.517Z,42.90
2023-05-23T14:32:13.901Z,42.90
2023-05-23T14:34:41.681Z,42.90
2023-05-23T14:37:08.836Z,42.80
2023-05-23T14:39:36.274Z,42.80
2023-05-23T14:42:03.879Z,42.50
2023-05-23T14:44:31.130Z,42.50
2023-05-23T14:46:58.351Z,42.60
2023-05-23T14:49:25.494Z,42.60
2023-05-23T14:51:53.398Z,42.90
2023-05-23T14:54:20.640Z,42.80
2023-05-23T14:56:47.889Z,42.70
2023-05-23T14:59:17.024Z,42.80
2023-05-23T15:01:44.278Z,42.80
2023-05-23T15:04:11.478Z,42.80
2023-05-23T15:06:39.573Z,43.10
2023-05-23T15:09:07.821Z,43.60
2023-05-23T15:11:39.118Z,44.00
2023-05-23T15:14:06.499Z,44.30
2023-05-23T15:16:35.293Z,44.60
2023-05-23T15:19:02.709Z,44.50
2023-05-23T15:21:29.954Z,44.40
2023-05-23T15:23:57.860Z,44.30
2023-05-23T15:26:25.553Z,44.20
2023-05-23T15:28:52.595Z,44.30
2023-05-23T15:31:19.800Z,44.50
2023-05-23T15:33:48.007Z,44.20
2023-05-23T15:36:15.283Z,43.70
2023-05-23T15:38:42.393Z,43.40
2023-05-23T15:41:10.278Z,42.90
2023-05-23T15:43:37.392Z,42.70
2023-05-23T15:46:05.232Z,42.40
2023-05-23T15:48:32.380Z,42.50
2023-05-23T15:50:59.517Z,42.50
2023-05-23T15:53:26.788Z,42.70
2023-05-23T15:55:53.925Z,42.90
2023-05-23T15:58:21.007Z,43.50
2023-05-23T16:00:48.230Z,44.90
2023-05-23T16:03:15.336Z,46.70
2023-05-23T16:05:42.530Z,47.70
2023-05-23T16:08:10.058Z,48.20
2023-05-23T16:10:37.190Z,47.70
2023-05-23T16:13:04.731Z,47.40
2023-05-23T16:15:31.778Z,46.60
2023-05-23T16:17:59.024Z,46.00
2023-05-23T16:20:26.465Z,45.40
2023-05-23T16:22:53.492Z,45.10
2023-05-23T16:25:20.986Z,45.20
2023-05-23T16:27:48.027Z,44.80
2023-05-23T16:30:15.758Z,44.60
2023-05-23T16:32:42.895Z,44.60
2023-05-23T16:35:11.219Z,44.60
2023-05-23T16:37:38.891Z,44.50
2023-05-23T16:40:06.737Z,44.60
2023-05-23T16:42:33.843Z,44.70
2023-05-23T16:45:00.997Z,44.70
2023-05-23T16:47:28.161Z,44.80
2023-05-23T16:49:55.288Z,44.80
2023-05-23T16:52:22.475Z,44.80
2023-05-23T16:54:49.744Z,44.90
2023-05-23T16:57:16.888Z,45.00
2023-05-23T16:59:43.947Z,45.00
2023-05-23T17:02:14.838Z,45.10
2023-05-23T17:04:42.181Z,45.20
2023-05-23T17:07:09.711Z,45.30
2023-05-23T17:09:37.266Z,45.40
2023-05-23T17:12:04.605Z,45.50
2023-05-23T17:14:32.100Z,45.50
2023-05-23T17:16:59.211Z,45.70
2023-05-23T17:19:26.500Z,45.80
2023-05-23T17:21:53.772Z,45.90
2023-05-23T17:24:21.025Z,46.10
2023-05-23T17:26:48.309Z,46.30
2023-05-23T17:29:17.461Z,46.50
2023-05-23T17:31:44.705Z,46.60
2023-05-23T17:34:12.793Z,46.70
2023-05-23T17:36:39.901Z,46.90
2023-05-23T17:39:07.122Z,47.00
2023-05-23T17:41:34.350Z,47.10
2023-05-23T17:44:02.558Z,47.30
2023-05-23T17:46:29.827Z,47.40
2023-05-23T17:48:56.947Z,47.50
2023-05-23T17:51:24.092Z,47.50
2023-05-23T17:53:53.812Z,47.60
2023-05-23T17:56:23.518Z,47.70
2023-05-23T17:58:50.873Z,47.80
2023-05-23T18:01:18.064Z,47.80
2023-05-23T18:03:45.378Z,47.90
2023-05-23T18:06:12.623Z,48.00
2023-05-23T18:08:41.016Z,48.10
2023-05-23T18:11:08.105Z,48.20
2023-05-23T18:13:35.171Z,48.20
2023-05-23T18:16:02.204Z,48.20
2023-05-23T18:18:29.351Z,48.30
2023-05-23T18:20:56.556Z,48.40
2023-05-23T18:23:23.860Z,48.50
2023-05-23T18:25:50.974Z,48.60
2023-05-23T18:28:18.110Z,48.60
2023-05-23T18:30:45.241Z,48.70
2023-05-23T18:33:12.447Z,49.20
2023-05-23T18:35:39.755Z,48.80
2023-05-23T18:38:07.030Z,48.80
2023-05-23T18:40:34.219Z,48.80
2023-05-23T18:43:01.316Z,48.80
2023-05-23T18:45:28.436Z,48.90
2023-05-23T18:47:56.116Z,48.90
2023-05-23T18:50:23.860Z,48.80
2023-05-23T18:52:51.406Z,48.90
2023-05-23T18:55:19.980Z,48.90
2023-05-23T18:57:47.125Z,48.90
2023-05-23T19:00:14.792Z,48.90
2023-05-23T19:02:44.536Z,48.90
2023-05-23T19:05:12.784Z,49.50
2023-05-23T19:07:40.093Z,49.00
2023-05-23T19:10:07.770Z,49.00
2023-05-23T19:12:35.033Z,49.00
2023-05-23T19:15:05.185Z,49.10
2023-05-23T19:17:32.684Z,49.10
2023-05-23T19:19:59.795Z,49.00
2023-05-23T19:22:36.071Z,49.10
2023-05-23T19:25:10.585Z,49.10
2023-05-23T19:27:37.680Z,49.20
2023-05-23T19:30:05.070Z,49.20
2023-05-23T19:32:32.145Z,49.20
2023-05-23T19:34:59.317Z,49.20
2023-05-23T19:37:26.761Z,49.20
2023-05-23T19:39:53.768Z,49.20
2023-05-23T19:42:21.068Z,49.20
2023-05-23T19:44:48.133Z,49.20
2023-05-23T19:47:15.211Z,49.20
2023-05-23T19:49:42.970Z,49.20
2023-05-23T19:52:09.995Z,49.30
2023-05-23T19:54:37.118Z,49.30
2023-05-23T19:57:05.452Z,49.30
2023-05-23T19:59:32.558Z,49.30
2023-05-23T20:02:00.483Z,49.30
2023-05-23T20:04:28.519Z,49.40
2023-05-23T20:06:56.187Z,49.30
2023-05-23T20:09:23.353Z,49.30
2023-05-23T20:11:50.625Z,49.40
2023-05-23T20:14:17.736Z,49.40
2023-05-23T20:16:44.764Z,49.40
2023-05-23T20:19:11.926Z,49.40
2023-05-23T20:21:39.058Z,49.40
2023-05-23T20:24:06.630Z,49.40
2023-05-23T20:26:33.697Z,49.50
2023-05-23T20:29:01.164Z,49.40
2023-05-23T20:31:28.260Z,49.40
2023-05-23T20:33:55.456Z,49.40
2023-05-23T20:36:23.647Z,49.40
2023-05-23T20:38:52.680Z,49.40
2023-05-23T20:41:20.559Z,49.50
2023-05-23T20:43:48.517Z,49.50
2023-05-23T20:46:15.669Z,49.50
2023-05-23T20:48:42.882Z,49.40
2023-05-23T20:51:10.094Z,49.40
2023-05-23T20:53:37.287Z,49.40
2023-05-23T20:56:04.637Z,49.50
2023-05-23T20:58:31.837Z,49.50
2023-05-23T21:00:59.204Z,49.50
2023-05-23T21:03:26.608Z,49.50
2023-05-23T21:05:53.712Z,49.50
2023-05-23T21:08:21.260Z,49.50
2023-05-23T21:10:51.438Z,49.50
2023-05-23T21:13:20.901Z,49.60
2023-05-23T21:15:48.040Z,49.60
2023-05-23T21:18:15.094Z,49.60
2023-05-23T21:20:42.511Z,50.20
2023-05-23T21:23:09.997Z,49.60
2023-05-23T21:25:37.002Z,49.60
2023-05-23T21:28:04.139Z,49.60
2023-05-23T21:30:31.364Z,49.60
2023-05-23T21:32:58.641Z,49.70
2023-05-23T21:35:25.795Z,49.70
2023-05-23T21:37:53.080Z,50.30
2023-05-23T21:40:20.178Z,49.80
2023-05-23T21:42:47.211Z,49.80
2023-05-23T21:45:14.286Z,49.80
2023-05-23T21:47:41.350Z,49.80
2023-05-23T21:50:08.985Z,49.80
2023-05-23T21:52:36.188Z,49.90
2023-05-23T21:55:03.360Z,49.90
2023-05-23T21:57:30.461Z,49.90
2023-05-23T21:59:57.503Z,50.00
2023-05-23T22:02:24.572Z,49.90
2023-05-23T22:04:51.664Z,50.00
2023-05-23T22:07:20.072Z,50.00
2023-05-23T22:09:47.172Z,50.00
2023-05-23T22:12:14.235Z,50.00
2023-05-23T22:14:41.295Z,50.60
2023-05-23T22:17:08.594Z,50.00
2023-05-23T22:19:36.684Z,50.00
2023-05-23T22:22:03.983Z,50.10
2023-05-23T22:24:31.337Z,50.10
2023-05-23T22:26:58.427Z,50.10
2023-05-23T22:29:25.563Z,50.10
2023-05-23T22:31:52.785Z,50.20
2023-05-23T22:34:19.811Z,50.20
2023-05-23T22:36:48.071Z,50.20
2023-05-23T22:39:15.114Z,50.20
2023-05-23T22:41:42.456Z,50.30
2023-05-23T22:44:09.574Z,50.30
2023-05-23T22:46:39.633Z,50.20
2023-05-23T22:49:06.631Z,50.20
2023-05-23T22:51:34.229Z,50.30
2023-05-23T22:54:01.861Z,50.30
2023-05-23T22:56:29.130Z,50.30
2023-05-23T22:58:56.174Z,50.30
2023-05-23T23:01:23.315Z,50.30
2023-05-23T23:03:50.357Z,50.40
2023-05-23T23:06:17.467Z,50.40
2023-05-23T23:08:47.406Z,50.40
2023-05-23T23:11:14.510Z,50.50
2023-05-23T23:13:41.565Z,50.40
2023-05-23T23:16:08.774Z,50.50
2023-05-23T23:18:35.859Z,50.50
2023-05-23T23:21:02.997Z,50.50
2023-05-23T23:23:30.165Z,50.50
2023-05-23T23:25:57.204Z,50.60
2023-05-23T23:28:24.298Z,50.60
2023-05-23T23:30:51.400Z,50.60
2023-05-23T23:33:18.463Z,50.60
2023-05-23T23:35:48.703Z,50.60
2023-05-23T23:38:16.526Z,50.60
2023-05-23T23:40:47.044Z,50.60
2023-05-23T23:43:14.359Z,50.90
2023-05-23T23:45:41.415Z,50.60
2023-05-23T23:48:08.560Z,50.60
2023-05-23T23:50:35.722Z,50.60
2023-05-23T23:53:02.951Z,50.60
2023-05-23T23:55:30.284Z,50.60
2023-05-23T23:57:57.372Z,50.70
